Time;durP1;ratioP1;P1;durP2;ratioP2;P2;SDS_P1;SDS_P2;PMS_P1;PMS_P2;Temp;Humidity;BMP_temperature;BMP_pressure;BME280_temperature;BME280_humidity;BME280_pressure;Samples;Min_cycle;Max_cycle;Signal;HPM_P1;HPM_P2
2023/12/02 00:01:49;;;;;;;22.80;14.85;;;15.40;69.30;;;;;;4171027;28;20074;-49
2023/12/02 00:04:30;;;;;;;21.00;14.63;;;15.40;69.10;;;;;;4157575;28;20056;-48
2023/12/02 00:07:11;;;;;;;;;;;15.40;69.00;;;;;;4166345;28;20053;-45
2023/12/02 00:09:52;;;;;;;21.50;14.00;;;15.40;69.20;;;;;;4187548;28;19985;-50
2023/12/02 00:12:33;;;;;;;20.98;14.15;;;15.40;69.60;;;;;;4187983;28;20059;-51
2023/12/02 00:15:15;;;;;;;20.90;15.32;;;15.20;69.30;;;;;;4187911;28;20060;-49
2023/12/02 00:17:57;;;;;;;23.83;15.30;;;15.20;69.50;;;;;;4175928;28;20506;-52
2023/12/02 00:20:38;;;;;;;20.23;14.68;;;15.10;69.80;;;;;;4159186;28;20068;-48
2023/12/02 00:23:19;;;;;;;23.00;14.93;;;15.10;70.20;;;;;;4172806;28;20538;-47
2023/12/02 00:26:00;;;;;;;20.25;14.70;;;15.20;70.50;;;;;;4172684;28;20080;-51
2023/12/02 00:28:41;;;;;;;21.55;14.88;;;15.20;70.20;;;;;;4173167;28;20388;-49
2023/12/02 00:31:23;;;;;;;24.70;16.15;;;15.30;69.80;;;;;;4184032;28;20058;-47
2023/12/02 00:34:04;;;;;;;22.90;15.05;;;15.40;69.70;;;;;;4205519;28;20051;-49
2023/12/02 00:36:46;;;;;;;23.70;15.13;;;15.50;69.50;;;;;;4205473;28;20603;-48
2023/12/02 00:39:28;;;;;;;19.98;14.52;;;15.50;69.10;;;;;;4163451;28;20494;-46
2023/12/02 00:42:09;;;;;;;21.67;14.75;;;15.50;69.10;;;;;;4172430;28;20395;-51
2023/12/02 00:44:50;;;;;;;20.30;14.55;;;15.60;68.90;;;;;;4172045;28;20060;-52
2023/12/02 00:47:33;;;;;;;21.33;14.98;;;15.60;69.00;;;;;;4171863;28;20076;-53
2023/12/02 00:50:13;;;;;;;23.75;15.10;;;15.70;68.80;;;;;;4155111;28;20059;-50
2023/12/02 00:52:54;;;;;;;23.38;14.52;;;15.70;68.30;;;;;;4172782;28;20129;-48
2023/12/02 00:55:35;;;;;;;21.63;14.60;;;15.70;69.30;;;;;;4190019;28;20055;-51
2023/12/02 00:58:16;;;;;;;21.92;14.93;;;15.80;68.40;;;;;;4204700;28;20181;-49
2023/12/02 01:01:02;;;;;;;23.60;15.30;;;15.80;68.30;;;;;;4204138;28;20510;-53
2023/12/02 01:03:44;;;;;;;20.65;13.95;;;15.80;68.10;;;;;;4205661;28;20079;-54
2023/12/02 01:06:25;;;;;;;23.77;15.63;;;15.80;68.20;;;;;;4154105;28;20123;-51
2023/12/02 01:09:06;;;;;;;21.60;14.55;;;15.80;68.10;;;;;;4164796;28;20056;-51
2023/12/02 01:11:47;;;;;;;;;;;15.90;68.20;;;;;;4164907;28;20048;-50
2023/12/02 01:14:28;;;;;;;19.33;13.95;;;15.90;68.10;;;;;;4182738;28;19936;-50
2023/12/02 01:17:10;;;;;;;20.33;14.95;;;15.90;67.90;;;;;;4184648;28;20440;-49
2023/12/02 01:19:52;;;;;;;;;;;15.90;67.80;;;;;;4206161;28;20092;-48
2023/12/02 01:22:33;;;;;;;22.70;14.85;;;15.90;68.10;;;;;;4205344;28;20052;-47
2023/12/02 01:25:14;;;;;;;21.85;14.90;;;15.90;68.00;;;;;;4205416;28;20067;-51
2023/12/02 01:27:55;;;;;;;23.92;14.82;;;15.90;67.80;;;;;;4203360;28;20055;-52
2023/12/02 01:30:36;;;;;;;22.77;14.65;;;15.90;67.70;;;;;;4167116;28;20059;-47
2023/12/02 01:33:17;;;;;;;21.10;15.02;;;15.90;67.90;;;;;;4176739;28;20060;-49
2023/12/02 01:35:59;;;;;;;22.38;14.85;;;15.90;67.90;;;;;;4180586;28;20178;-46
2023/12/02 01:38:40;;;;;;;21.05;14.38;;;16.00;67.80;;;;;;4172014;28;20059;-46
2023/12/02 01:41:21;;;;;;;19.80;14.45;;;16.00;67.60;;;;;;4187844;28;20490;-48
2023/12/02 01:44:02;;;;;;;19.88;14.45;;;16.00;67.60;;;;;;4188609;28;20055;-48
2023/12/02 01:46:44;;;;;;;23.00;14.63;;;15.90;67.70;;;;;;4188101;28;20234;-45
2023/12/02 01:49:26;;;;;;;20.90;14.45;;;15.90;67.80;;;;;;4188267;28;20101;-48
2023/12/02 01:52:08;;;;;;;20.80;14.40;;;15.80;67.90;;;;;;4187256;28;20179;-46
2023/12/02 01:54:49;;;;;;;20.83;14.30;;;15.70;68.10;;;;;;4170433;28;20504;-48
2023/12/02 01:57:31;;;;;;;22.80;14.73;;;15.60;68.30;;;;;;4156608;28;20044;-51
2023/12/02 02:00:13;;;;;;;20.52;14.32;;;15.60;68.90;;;;;;4170734;28;20186;-45
2023/12/02 02:02:54;;;;;;;20.77;14.38;;;15.60;69.00;;;;;;4170200;28;20482;-45
2023/12/02 02:05:36;;;;;;;22.65;15.00;;;15.70;68.80;;;;;;4191522;28;20092;-49
2023/12/02 02:08:18;;;;;;;21.48;14.57;;;15.70;68.50;;;;;;4205056;28;20066;-48
2023/12/02 02:11:00;;;;;;;20.42;14.07;;;15.80;68.30;;;;;;4204148;28;20693;-48
2023/12/02 02:13:40;;;;;;;22.50;14.07;;;15.70;68.10;;;;;;4203527;28;20490;-52
2023/12/02 02:16:22;;;;;;;21.48;14.82;;;15.70;68.10;;;;;;4204916;28;20055;-51
2023/12/02 02:19:03;;;;;;;21.00;14.68;;;15.60;68.60;;;;;;4168450;28;20499;-51
2023/12/02 02:21:45;;;;;;;20.60;14.00;;;15.60;69.00;;;;;;4154455;28;20060;-51
2023/12/02 02:24:26;;;;;;;19.27;13.85;;;15.70;68.90;;;;;;4164646;28;20055;-48
2023/12/02 02:27:07;;;;;;;20.75;13.85;;;15.70;68.70;;;;;;4159266;28;20546;-50
2023/12/02 02:29:48;;;;;;;20.52;14.95;;;15.80;68.60;;;;;;4189823;28;20056;-47
2023/12/02 02:32:29;;;;;;;19.95;14.00;;;15.80;68.60;;;;;;4175168;28;20487;-49
2023/12/02 02:35:10;;;;;;;20.30;13.40;;;15.90;69.20;;;;;;4187733;28;20194;-50
2023/12/02 02:37:53;;;;;;;20.85;14.38;;;15.90;68.20;;;;;;4187217;28;20194;-48
2023/12/02 02:40:34;;;;;;;20.35;15.15;;;15.90;68.00;;;;;;4187242;28;20498;-47
2023/12/02 02:43:16;;;;;;;21.63;14.43;;;16.00;67.80;;;;;;4165567;28;20053;-47
2023/12/02 02:45:56;;;;;;;23.10;14.23;;;16.00;67.80;;;;;;4171249;28;20044;-51
2023/12/02 02:48:37;;;;;;;22.30;15.13;;;16.00;67.80;;;;;;4179342;28;20677;-49
2023/12/02 02:51:19;;;;;;;19.42;14.45;;;15.90;68.00;;;;;;4203233;28;20128;-51
2023/12/02 02:54:01;;;;;;;19.35;13.40;;;15.90;67.90;;;;;;4188277;28;20056;-51
2023/12/02 02:56:44;;;;;;;20.58;14.15;;;15.90;67.70;;;;;;4184657;28;20059;-52
2023/12/02 02:59:25;;;;;;;20.23;14.98;;;16.00;67.80;;;;;;4182502;28;20129;-51
2023/12/02 03:02:06;;;;;;;21.23;15.23;;;16.00;67.90;;;;;;4172863;28;20179;-45
2023/12/02 03:04:47;;;;;;;21.33;14.52;;;16.00;68.40;;;;;;4186577;28;20351;-48
2023/12/02 03:07:28;;;;;;;21.00;15.00;;;16.00;67.40;;;;;;4170093;28;20047;-48
2023/12/02 03:10:11;;;;;;;20.48;14.32;;;16.00;67.50;;;;;;4167548;28;20416;-48
2023/12/02 03:12:52;;;;;;;17.20;13.55;;;15.90;67.50;;;;;;4169858;28;20059;-49
2023/12/02 03:15:33;;;;;;;19.50;14.00;;;15.80;67.80;;;;;;4171063;28;20068;-54
2023/12/02 03:18:14;;;;;;;19.70;14.68;;;15.70;68.20;;;;;;4189075;28;20055;-49
2023/12/02 03:20:55;;;;;;;19.80;14.15;;;15.60;68.60;;;;;;4203143;28;20059;-52
2023/12/02 03:23:36;;;;;;;20.38;14.25;;;15.70;69.10;;;;;;4202969;28;20066;-48
2023/12/02 03:26:18;;;;;;;20.25;14.25;;;15.70;68.80;;;;;;4202730;28;20494;-50
2023/12/02 03:28:59;;;;;;;21.45;14.50;;;15.80;68.70;;;;;;4202768;28;20047;-48
2023/12/02 03:31:41;;;;;;;20.48;13.30;;;15.80;68.40;;;;;;4176653;28;20111;-47
2023/12/02 03:34:22;;;;;;;19.90;14.02;;;15.90;68.50;;;;;;4176265;28;20060;-46
2023/12/02 03:37:04;;;;;;;21.67;14.52;;;16.00;68.10;;;;;;4184318;28;20407;-50
2023/12/02 03:39:45;;;;;;;17.15;12.90;;;16.00;67.70;;;;;;4184992;28;20613;-51
2023/12/02 03:42:26;;;;;;;19.02;14.52;;;16.00;67.70;;;;;;4198341;28;20124;-51
2023/12/02 03:45:09;;;;;;;17.95;13.55;;;16.00;67.60;;;;;;4202873;28;20063;-49
2023/12/02 03:47:50;;;;;;;20.25;14.63;;;16.00;67.50;;;;;;4203129;28;20050;-50
2023/12/02 03:50:31;;;;;;;18.77;13.70;;;16.00;67.50;;;;;;4202909;28;20059;-48
2023/12/02 03:53:12;;;;;;;18.85;14.20;;;15.90;67.90;;;;;;4202707;28;20502;-52
2023/12/02 03:55:54;;;;;;;19.20;14.63;;;16.00;67.90;;;;;;4174484;28;20174;-50
2023/12/02 03:58:36;;;;;;;;;;;16.00;67.60;;;;;;4187422;28;20067;-51
2023/12/02 04:01:17;;;;;;;;;;;16.10;67.80;;;;;;4182941;28;20291;-48
2023/12/02 04:03:58;;;;;;;19.50;13.30;;;16.10;67.90;;;;;;4187199;28;19927;-49
2023/12/02 04:06:39;;;;;;;18.38;13.52;;;16.10;67.70;;;;;;4198254;28;20556;-52
2023/12/02 04:09:21;;;;;;;20.90;14.63;;;16.10;67.50;;;;;;4201739;28;20177;-52
2023/12/02 04:12:03;;;;;;;17.98;13.32;;;16.10;66.30;;;;;;4203742;28;20070;-51
2023/12/02 04:14:45;;;;;;;20.13;14.30;;;16.10;65.70;;;;;;4203183;28;20054;-49
2023/12/02 04:17:26;;;;;;;19.15;14.25;;;16.00;66.20;;;;;;4199969;28;20399;-53
2023/12/02 04:20:08;;;;;;;19.40;13.88;;;16.10;66.40;;;;;;4189482;28;20074;-53
2023/12/02 04:22:50;;;;;;;17.35;12.65;;;16.00;66.70;;;;;;4185509;28;20079;-52
2023/12/02 04:25:31;;;;;;;17.67;12.82;;;16.00;66.90;;;;;;4159668;28;20090;-53
2023/12/02 04:28:12;;;;;;;18.77;13.32;;;16.00;67.10;;;;;;4182527;28;20071;-51
2023/12/02 04:30:54;;;;;;;19.00;13.43;;;16.00;67.10;;;;;;4184797;28;20279;-49
2023/12/02 04:33:35;;;;;;;18.90;12.73;;;15.90;67.40;;;;;;4173662;28;20662;-51
2023/12/02 04:36:16;;;;;;;14.70;12.00;;;15.90;67.60;;;;;;4174441;28;20407;-50
2023/12/02 04:38:57;;;;;;;18.80;14.00;;;16.00;67.50;;;;;;4186178;28;20068;-53
2023/12/02 04:41:39;;;;;;;18.45;13.18;;;16.00;67.40;;;;;;4184762;28;20094;-48
2023/12/02 04:44:21;;;;;;;;;;;16.10;67.30;;;;;;4189123;28;20063;-47
2023/12/02 04:47:03;;;;;;;18.17;12.60;;;16.00;67.30;;;;;;4188613;28;19969;-47
2023/12/02 04:49:45;;;;;;;17.90;12.82;;;16.00;67.50;;;;;;4189295;28;20060;-48
2023/12/02 04:52:26;;;;;;;17.65;13.27;;;15.90;67.40;;;;;;4205924;28;20557;-46
2023/12/02 04:55:08;;;;;;;17.38;13.32;;;15.90;67.60;;;;;;4186514;28;20064;-50
2023/12/02 04:57:49;;;;;;;17.50;12.52;;;15.80;67.80;;;;;;4179176;28;20051;-51
2023/12/02 05:00:30;;;;;;;17.83;13.45;;;15.70;67.90;;;;;;4186440;28;20056;-45
2023/12/02 05:03:16;;;;;;;18.40;13.53;;;15.70;68.20;;;;;;4188784;28;20071;-48
2023/12/02 05:05:58;;;;;;;16.33;13.23;;;15.70;68.80;;;;;;4191522;28;20051;-47
2023/12/02 05:08:38;;;;;;;18.00;13.07;;;15.70;68.40;;;;;;4205331;28;20386;-45
2023/12/02 05:11:21;;;;;;;17.10;12.43;;;15.70;68.20;;;;;;4205016;28;20100;-49
2023/12/02 05:14:02;;;;;;;18.92;13.90;;;15.80;68.30;;;;;;4205375;28;20047;-47
2023/12/02 05:16:43;;;;;;;20.98;13.40;;;15.90;68.20;;;;;;4205538;28;20047;-47
2023/12/02 05:19:26;;;;;;;18.98;13.80;;;15.90;68.00;;;;;;4178274;28;20503;-47
2023/12/02 05:22:07;;;;;;;18.50;13.05;;;15.90;67.70;;;;;;4183826;28;20052;-47
2023/12/02 05:24:48;;;;;;;18.77;13.60;;;15.90;67.90;;;;;;4199316;28;20059;-46
2023/12/02 05:27:29;;;;;;;16.20;12.60;;;15.90;67.80;;;;;;4205258;28;20063;-47
2023/12/02 05:30:13;;;;;;;18.25;13.32;;;15.90;67.70;;;;;;4199132;28;20067;-51
2023/12/02 05:32:54;;;;;;;16.58;12.88;;;15.80;67.80;;;;;;4204526;28;20498;-49
2023/12/02 05:35:37;;;;;;;18.05;13.18;;;15.90;68.20;;;;;;4203993;28;20120;-53
2023/12/02 05:38:18;;;;;;;17.85;13.48;;;15.90;67.90;;;;;;4204937;28;20059;-50
2023/12/02 05:40:58;;;;;;;19.60;13.48;;;16.00;67.80;;;;;;4204930;28;20518;-54
2023/12/02 05:43:40;;;;;;;18.05;12.95;;;16.00;67.50;;;;;;4183083;28;20586;-49
2023/12/02 05:46:21;;;;;;;17.40;13.10;;;16.10;67.40;;;;;;4186983;28;20123;-52
2023/12/02 05:49:02;;;;;;;16.13;12.65;;;16.10;67.30;;;;;;4187504;28;20226;-54
2023/12/02 05:51:44;;;;;;;17.25;12.80;;;16.10;67.00;;;;;;4187780;28;20080;-50
2023/12/02 05:54:26;;;;;;;17.52;12.38;;;16.10;66.80;;;;;;4189637;28;20047;-51
2023/12/02 05:57:07;;;;;;;18.58;13.05;;;16.10;67.90;;;;;;4204510;28;20058;-51
2023/12/02 05:59:48;;;;;;;18.13;13.40;;;16.10;67.20;;;;;;4204257;28;20510;-50
2023/12/02 06:02:29;;;;;;;18.08;12.75;;;16.20;67.20;;;;;;4204532;28;20051;-53
2023/12/02 06:05:10;;;;;;;17.92;12.52;;;16.20;67.00;;;;;;4204797;28;20229;-50
2023/12/02 06:07:53;;;;;;;22.10;15.00;;;16.30;66.80;;;;;;4179342;28;20059;-50
2023/12/02 06:10:34;;;;;;;16.92;12.57;;;16.20;66.50;;;;;;4186005;28;20051;-52
2023/12/02 06:13:15;;;;;;;17.75;14.13;;;16.20;66.50;;;;;;4186314;28;20102;-50
2023/12/02 06:15:56;;;;;;;16.70;12.88;;;16.10;66.50;;;;;;4187170;28;20055;-51
2023/12/02 06:18:36;;;;;;;17.10;13.20;;;16.10;66.70;;;;;;4186078;28;20560;-51
2023/12/02 06:21:18;;;;;;;19.73;13.95;;;16.00;67.30;;;;;;4183208;28;20313;-49
2023/12/02 06:24:00;;;;;;;18.92;13.70;;;16.00;69.00;;;;;;4187640;28;20669;-50
2023/12/02 06:26:41;;;;;;;17.75;13.40;;;16.00;68.00;;;;;;4186673;28;20190;-53
2023/12/02 06:29:22;;;;;;;16.42;12.82;;;16.10;67.90;;;;;;4185982;28;20155;-53
2023/12/02 06:32:04;;;;;;;16.90;13.02;;;16.10;67.50;;;;;;4202331;28;20043;-53
2023/12/02 06:34:45;;;;;;;;;;;16.20;67.10;;;;;;4203020;28;20150;-54
2023/12/02 06:37:26;;;;;;;16.08;13.18;;;16.20;67.30;;;;;;4202984;28;19931;-51
2023/12/02 06:40:09;;;;;;;15.38;12.77;;;16.20;67.00;;;;;;4203516;28;20096;-51
2023/12/02 06:42:51;;;;;;;16.65;13.00;;;16.20;65.30;;;;;;4197305;28;20052;-54
2023/12/02 06:45:34;;;;;;;18.30;13.13;;;16.30;66.30;;;;;;4186665;28;20062;-52
2023/12/02 06:48:14;;;;;;;16.52;12.65;;;16.30;66.20;;;;;;4187039;28;20145;-55
2023/12/02 06:50:56;;;;;;;16.67;12.85;;;16.30;66.20;;;;;;4186107;28;20056;-54
2023/12/02 06:53:37;;;;;;;15.93;12.07;;;16.40;66.40;;;;;;4203694;28;20519;-54
2023/12/02 06:56:21;;;;;;;15.50;12.32;;;16.40;66.30;;;;;;4162577;28;20062;-56
2023/12/02 06:59:02;;;;;;;15.18;11.93;;;16.40;66.10;;;;;;4153464;28;20075;-52
2023/12/02 07:01:43;;;;;;;;;;;16.40;66.00;;;;;;4169437;28;20059;-56
2023/12/02 07:04:24;;;;;;;16.05;12.35;;;16.40;66.30;;;;;;4170038;28;20065;-51
2023/12/02 07:07:05;;;;;;;15.10;11.65;;;16.40;66.50;;;;;;4175283;28;20506;-56
2023/12/02 07:09:48;;;;;;;13.48;11.35;;;16.30;66.50;;;;;;4203604;28;20506;-54
2023/12/02 07:12:31;;;;;;;14.88;12.38;;;16.30;66.70;;;;;;4202938;28;20074;-61
2023/12/02 07:15:13;;;;;;;16.75;11.63;;;16.30;67.10;;;;;;4202907;28;20058;-54
2023/12/02 07:17:54;;;;;;;16.90;12.90;;;16.30;68.00;;;;;;4203270;28;20522;-56
2023/12/02 07:20:36;;;;;;;17.50;12.43;;;16.30;67.00;;;;;;4159034;28;20056;-54
2023/12/02 07:23:17;;;;;;;;;;;16.30;66.70;;;;;;4170132;28;20114;-54
2023/12/02 07:26:01;;;;;;;15.95;12.10;;;16.30;66.90;;;;;;4159509;28;19928;-52
2023/12/02 07:28:43;;;;;;;16.02;12.48;;;16.40;66.60;;;;;;4166608;28;20055;-52
2023/12/02 07:31:25;;;;;;;16.80;12.98;;;16.40;66.40;;;;;;4178435;28;20120;-54
2023/12/02 07:34:06;;;;;;;16.02;12.43;;;16.30;66.20;;;;;;4184991;28;20052;-55
2023/12/02 07:36:47;;;;;;;16.00;12.88;;;16.30;66.10;;;;;;4172760;28;20136;-54
2023/12/02 07:39:28;;;;;;;17.52;12.73;;;16.30;65.60;;;;;;4185623;28;20052;-56
2023/12/02 07:42:09;;;;;;;17.35;12.70;;;16.20;64.10;;;;;;4186664;28;20208;-58
2023/12/02 07:44:52;;;;;;;14.27;11.60;;;16.10;64.80;;;;;;4169076;28;20060;-55
2023/12/02 07:47:33;;;;;;;17.08;12.43;;;16.00;65.70;;;;;;4169659;28;20083;-55
2023/12/02 07:50:14;;;;;;;16.33;12.05;;;16.10;66.10;;;;;;4173096;28;20044;-59
2023/12/02 07:52:55;;;;;;;15.77;12.15;;;16.10;66.00;;;;;;4205744;28;20054;-55
2023/12/02 07:55:36;;;;;;;16.60;12.90;;;16.10;66.00;;;;;;4196023;28;20055;-56
2023/12/02 07:58:17;;;;;;;16.58;13.38;;;16.10;66.00;;;;;;4189763;28;20178;-54
2023/12/02 08:01:00;;;;;;;16.38;13.07;;;16.20;67.10;;;;;;4175992;28;20056;-57
2023/12/02 08:03:41;;;;;;;16.90;11.75;;;16.20;67.20;;;;;;4171168;28;20150;-56
2023/12/02 08:06:22;;;;;;;14.30;11.23;;;16.30;66.20;;;;;;4188652;28;20095;-54
2023/12/02 08:09:03;;;;;;;18.33;13.57;;;16.50;66.10;;;;;;4172103;28;20052;-56
2023/12/02 08:11:44;;;;;;;14.73;11.75;;;16.50;65.80;;;;;;4189516;28;20055;-56
2023/12/02 08:14:25;;;;;;;15.80;12.35;;;16.60;65.40;;;;;;4178631;28;20063;-54
2023/12/02 08:17:07;;;;;;;13.48;11.35;;;16.70;65.10;;;;;;4189793;28;20179;-55
2023/12/02 08:19:48;;;;;;;16.38;12.63;;;16.60;64.90;;;;;;4187452;28;20414;-54
2023/12/02 08:22:30;;;;;;;14.55;11.13;;;16.60;64.80;;;;;;4188204;28;20079;-56
2023/12/02 08:25:11;;;;;;;15.13;11.88;;;16.60;65.30;;;;;;4198627;28;20051;-52
2023/12/02 08:27:52;;;;;;;15.07;11.35;;;16.60;65.40;;;;;;4184793;28;20072;-57
2023/12/02 08:30:33;;;;;;;14.85;11.48;;;16.50;65.50;;;;;;4189333;28;20047;-50
2023/12/02 08:33:16;;;;;;;15.68;12.43;;;16.40;65.60;;;;;;4188351;28;20055;-49
2023/12/02 08:35:57;;;;;;;17.42;12.20;;;16.30;66.00;;;;;;4189307;28;20537;-46
2023/12/02 08:38:38;;;;;;;15.48;11.95;;;16.20;67.20;;;;;;4187610;28;20167;-52
2023/12/02 08:41:19;;;;;;;16.48;13.00;;;16.10;66.80;;;;;;4187142;28;20146;-52
2023/12/02 08:44:00;;;;;;;16.15;12.30;;;16.00;67.30;;;;;;4197517;28;20130;-53
2023/12/02 08:46:41;;;;;;;15.57;12.75;;;16.00;67.80;;;;;;4186504;28;20039;-49
2023/12/02 08:49:24;;;;;;;17.35;12.55;;;15.90;67.80;;;;;;4183907;28;20059;-56
2023/12/02 08:52:06;;;;;;;17.63;13.13;;;15.90;67.80;;;;;;4188445;28;20131;-54
2023/12/02 08:54:47;;;;;;;15.60;12.30;;;15.90;68.10;;;;;;4174750;28;20060;-48
2023/12/02 08:57:28;;;;;;;19.02;12.80;;;16.00;68.10;;;;;;4184773;28;20079;-48
2023/12/02 09:00:10;;;;;;;15.63;12.43;;;16.00;68.00;;;;;;4176822;28;20087;-49
2023/12/02 09:02:51;;;;;;;13.93;11.38;;;16.10;67.80;;;;;;4179649;28;20056;-56
2023/12/02 09:05:34;;;;;;;16.67;12.07;;;16.00;67.50;;;;;;4178009;28;20113;-51
2023/12/02 09:08:15;;;;;;;19.02;12.75;;;16.00;67.60;;;;;;4187961;28;20063;-50
2023/12/02 09:10:56;;;;;;;16.70;12.70;;;16.00;67.80;;;;;;4188464;28;20063;-48
2023/12/02 09:13:46;;;;;;;15.68;11.63;;;16.00;67.60;;;;;;4188773;28;20069;-51
2023/12/02 09:16:29;;;;;;;18.75;13.25;;;16.00;67.60;;;;;;4171741;28;20074;-47
2023/12/02 09:19:39;;;;;;;16.85;13.05;;;16.00;68.40;;;;;;4190617;28;20055;-50
2023/12/02 09:22:54;;;;;;;15.10;12.27;;;16.20;68.10;;;;;;4178407;28;20051;-48
2023/12/02 09:25:38;;;;;;;16.13;12.73;;;16.60;66.60;;;;;;4183882;28;20503;-49
2023/12/02 09:28:22;;;;;;;19.65;14.05;;;17.20;65.50;;;;;;4186140;28;20399;-48
2023/12/02 09:31:06;;;;;;;18.70;13.63;;;17.50;64.00;;;;;;4187834;28;20134;-48
2023/12/02 09:33:58;;;;;;;16.08;12.25;;;18.00;62.30;;;;;;4175713;28;20569;-48
2023/12/02 09:36:41;;;;;;;15.15;12.52;;;18.40;61.00;;;;;;4168729;28;20160;-52
2023/12/02 09:40:13;;;;;;;17.88;13.38;;;18.70;60.90;;;;;;4187576;28;20056;-48
2023/12/02 09:42:56;;;;;;;16.13;13.32;;;19.10;59.10;;;;;;4186969;28;20118;-51
2023/12/02 09:45:46;;;;;;;16.27;12.13;;;19.30;58.70;;;;;;4186280;28;20068;-53
2023/12/02 09:48:31;;;;;;;18.63;13.63;;;19.60;57.80;;;;;;4167198;28;20106;-51
2023/12/02 09:51:22;;;;;;;16.35;13.40;;;19.80;57.60;;;;;;4171295;28;20063;-49
2023/12/02 09:54:12;;;;;;;17.93;14.07;;;19.90;56.40;;;;;;4169918;28;20064;-53
2023/12/02 09:56:59;;;;;;;15.45;13.18;;;19.90;56.10;;;;;;4180299;28;20391;-49
2023/12/02 09:59:54;;;;;;;17.13;13.98;;;20.00;55.90;;;;;;4187359;28;20536;-51
2023/12/02 10:02:47;;;;;;;15.40;12.38;;;19.90;55.60;;;;;;4186804;28;20047;-47
2023/12/02 10:05:29;;;;;;;17.50;13.45;;;19.90;55.70;;;;;;4176460;28;20154;-51
2023/12/02 10:08:18;;;;;;;16.15;13.77;;;19.90;55.80;;;;;;4161920;28;20138;-48
2023/12/02 10:11:05;;;;;;;15.15;12.40;;;19.80;55.80;;;;;;4170455;28;20087;-48
2023/12/02 10:13:54;;;;;;;16.92;13.43;;;19.70;56.10;;;;;;4153877;28;20153;-48
2023/12/02 10:16:37;;;;;;;15.93;13.07;;;19.70;56.20;;;;;;4170461;28;20194;-49
2023/12/02 10:19:30;;;;;;;15.07;12.73;;;19.60;56.50;;;;;;4169660;28;20064;-52
2023/12/02 10:22:12;;;;;;;17.15;12.73;;;19.70;57.10;;;;;;4170572;28;20047;-52
2023/12/02 10:25:01;;;;;;;16.40;13.40;;;19.70;56.30;;;;;;4170673;28;20053;-47
2023/12/02 10:27:42;;;;;;;15.25;12.40;;;19.80;56.20;;;;;;4171133;28;20101;-53
2023/12/02 10:30:25;;;;;;;15.15;12.80;;;19.80;56.20;;;;;;4183285;28;20059;-51
2023/12/02 10:33:11;;;;;;;16.58;12.85;;;19.80;56.10;;;;;;4186618;28;20063;-56
2023/12/02 10:35:57;;;;;;;16.88;14.07;;;19.90;56.00;;;;;;4187285;28;20060;-55
2023/12/02 10:38:57;;;;;;;15.77;13.00;;;19.90;55.90;;;;;;4187022;28;20051;-52
2023/12/02 10:41:51;;;;;;;15.13;12.75;;;19.90;55.80;;;;;;4170125;28;20044;-55
2023/12/02 10:44:34;;;;;;;16.08;13.05;;;20.00;55.70;;;;;;4170368;28;20400;-52
2023/12/02 10:47:18;;;;;;;16.35;13.20;;;20.00;55.70;;;;;;4170254;28;20488;-55
2023/12/02 10:50:01;;;;;;;16.83;13.40;;;20.00;55.70;;;;;;4175059;28;20602;-54
2023/12/02 10:52:57;;;;;;;13.45;11.15;;;20.00;55.60;;;;;;4185005;28;20540;-55
2023/12/02 10:55:40;;;;;;;14.10;12.05;;;20.10;55.50;;;;;;4185659;28;20071;-54
2023/12/02 10:58:22;;;;;;;16.58;13.32;;;20.10;55.60;;;;;;4184902;28;20423;-55
2023/12/02 11:01:07;;;;;;;19.23;13.05;;;20.10;55.60;;;;;;4180436;28;20102;-54
2023/12/02 11:03:52;;;;;;;15.15;12.60;;;20.10;55.60;;;;;;4185268;28;20388;-53
2023/12/02 11:06:38;;;;;;;16.63;13.55;;;20.10;55.50;;;;;;4185407;28;20094;-56
2023/12/02 11:09:28;;;;;;;15.30;11.77;;;20.10;55.50;;;;;;4186871;28;20082;-50
2023/12/02 11:12:18;;;;;;;16.35;12.98;;;20.10;55.90;;;;;;4185869;28;20048;-51
2023/12/02 11:15:04;;;;;;;15.77;13.07;;;20.00;55.80;;;;;;4185737;28;20060;-52
2023/12/02 11:17:54;;;;;;;14.18;11.85;;;19.90;56.20;;;;;;4186570;28;20625;-57
2023/12/02 11:20:50;;;;;;;16.00;12.95;;;19.70;56.60;;;;;;4174375;28;20048;-53
2023/12/02 11:23:51;;;;;;;17.10;14.10;;;19.70;56.70;;;;;;4168512;28;20052;-52
2023/12/02 11:26:40;;;;;;;16.88;12.50;;;19.70;57.80;;;;;;4168482;28;20071;-52
2023/12/02 11:29:32;;;;;;;17.30;13.50;;;19.80;57.30;;;;;;4175386;28;20048;-50
2023/12/02 11:32:23;;;;;;;15.10;11.95;;;19.90;56.90;;;;;;4189127;28;20109;-51
2023/12/02 11:35:15;;;;;;;14.98;12.15;;;20.10;56.70;;;;;;4190173;28;20077;-50
2023/12/02 11:37:59;;;;;;;14.52;11.70;;;20.20;56.60;;;;;;4176542;28;20063;-47
2023/12/02 11:40:50;;;;;;;17.80;13.05;;;20.30;56.30;;;;;;4187799;28;20164;-52
2023/12/02 11:43:44;;;;;;;16.80;13.23;;;20.40;56.10;;;;;;4188275;28;20058;-52
2023/12/02 11:46:36;;;;;;;16.52;12.40;;;20.40;56.30;;;;;;4199742;28;20128;-51
2023/12/02 11:49:27;;;;;;;16.20;12.88;;;20.50;56.10;;;;;;4188837;28;20051;-49
2023/12/02 11:52:18;;;;;;;13.70;11.20;;;20.50;55.90;;;;;;4187891;28;20102;-49
2023/12/02 11:55:15;;;;;;;13.25;11.32;;;20.50;56.00;;;;;;4180689;28;20054;-51
2023/12/02 11:58:10;;;;;;;14.02;11.70;;;20.50;56.00;;;;;;4189852;28;20116;-52
2023/12/02 12:01:03;;;;;;;15.25;12.43;;;20.50;56.10;;;;;;4188761;28;20094;-54
2023/12/02 12:03:50;;;;;;;16.30;11.90;;;20.40;56.20;;;;;;4186651;28;20056;-52
2023/12/02 12:06:41;;;;;;;14.18;12.13;;;20.20;56.50;;;;;;4189780;28;20071;-52
2023/12/02 12:09:31;;;;;;;12.82;11.38;;;20.00;56.80;;;;;;4203279;28;20051;-53
2023/12/02 12:12:15;;;;;;;13.70;11.93;;;19.90;57.20;;;;;;4198983;28;20055;-50
2023/12/02 12:14:56;;;;;;;15.30;12.90;;;19.90;57.40;;;;;;4189479;28;20059;-48
2023/12/02 12:17:38;;;;;;;14.15;11.63;;;19.90;57.50;;;;;;4187240;28;20047;-51
2023/12/02 12:20:21;;;;;;;14.00;12.27;;;19.90;57.60;;;;;;4188499;28;20059;-48
2023/12/02 12:23:02;;;;;;;13.50;11.43;;;19.90;57.60;;;;;;4189571;28;20048;-51
2023/12/02 12:25:43;;;;;;;15.75;12.95;;;19.90;57.70;;;;;;4178005;28;20055;-51
2023/12/02 12:28:26;;;;;;;13.93;11.18;;;20.00;57.70;;;;;;4172735;28;20166;-48
2023/12/02 12:31:10;;;;;;;14.13;12.02;;;19.90;57.70;;;;;;4169782;28;20060;-56
2023/12/02 12:33:52;;;;;;;14.25;11.82;;;19.90;57.80;;;;;;4159821;28;20088;-51
2023/12/02 12:36:33;;;;;;;15.70;12.43;;;19.90;58.10;;;;;;4196140;28;20059;-52
2023/12/02 12:39:19;;;;;;;13.25;11.85;;;19.90;58.20;;;;;;4205217;28;20101;-51
2023/12/02 12:41:59;;;;;;;13.80;10.95;;;19.90;58.30;;;;;;4205587;28;20510;-50
2023/12/02 12:44:42;;;;;;;14.98;10.88;;;19.80;58.50;;;;;;4205801;28;20047;-50
2023/12/02 12:47:27;;;;;;;12.32;10.45;;;19.80;58.70;;;;;;4202266;28;20058;-51
2023/12/02 12:50:12;;;;;;;11.45;10.13;;;19.70;58.80;;;;;;4205811;28;20099;-53
2023/12/02 12:52:55;;;;;;;12.98;10.70;;;19.60;59.30;;;;;;4201635;28;20051;-56
2023/12/02 12:55:38;;;;;;;10.20;9.20;;;19.60;59.90;;;;;;4189262;28;20056;-53
2023/12/02 12:58:19;;;;;;;12.63;9.60;;;19.60;60.50;;;;;;4183152;28;20116;-55
2023/12/02 13:01:04;;;;;;;11.50;9.65;;;19.60;60.80;;;;;;4186629;28;20068;-53
2023/12/02 13:03:50;;;;;;;11.55;9.88;;;19.60;60.80;;;;;;4188176;28;20552;-46
2023/12/02 13:06:39;;;;;;;11.68;9.45;;;19.70;60.90;;;;;;4198823;28;20084;-58
2023/12/02 13:09:28;;;;;;;12.10;9.48;;;19.70;60.40;;;;;;4204817;28;20086;-52
2023/12/02 13:12:14;;;;;;;13.82;9.90;;;19.70;60.40;;;;;;4205547;28;20383;-50
2023/12/02 13:15:02;;;;;;;12.25;10.77;;;19.70;60.20;;;;;;4197366;28;20051;-53
2023/12/02 13:17:47;;;;;;;13.05;10.55;;;19.70;60.10;;;;;;4205258;28;20136;-55
2023/12/02 13:20:32;;;;;;;13.25;10.90;;;19.80;60.20;;;;;;4193900;28;20052;-55
2023/12/02 13:23:20;;;;;;;12.32;10.52;;;19.80;60.20;;;;;;4188198;28;20059;-52
2023/12/02 13:26:05;;;;;;;11.65;10.10;;;19.80;60.10;;;;;;4181669;28;20057;-55
2023/12/02 13:28:46;;;;;;;12.10;10.38;;;19.80;60.10;;;;;;4187828;28;20141;-52
2023/12/02 13:31:28;;;;;;;12.07;10.18;;;19.80;60.10;;;;;;4193826;28;20490;-51
2023/12/02 13:34:27;;;;;;;10.82;9.73;;;19.80;59.90;;;;;;4203802;28;20505;-55
2023/12/02 13:37:08;;;;;;;12.57;9.98;;;19.80;59.80;;;;;;4169518;28;20064;-52
2023/12/02 13:39:56;;;;;;;11.80;10.10;;;19.80;59.70;;;;;;4176562;28;20410;-53
2023/12/02 13:42:41;;;;;;;11.40;10.20;;;19.80;59.50;;;;;;4185864;28;20411;-49
2023/12/02 13:45:22;;;;;;;;;;;19.70;59.60;;;;;;4188180;28;20059;-47
2023/12/02 13:48:05;;;;;;;13.00;10.45;;;19.60;59.90;;;;;;4186812;28;19927;-52
2023/12/02 13:50:54;;;;;;;14.23;10.85;;;19.50;59.90;;;;;;4199444;28;20052;-49
2023/12/02 13:53:45;;;;;;;14.32;10.95;;;19.40;60.30;;;;;;4197525;28;20047;-53